Time;durP1;ratioP1;P1;durP2;ratioP2;P2;SDS_P1;SDS_P2;PMS_P1;PMS_P2;Temp;Humidity;BMP_temperature;BMP_pressure;BME280_temperature;BME280_humidity;BME280_pressure;Samples;Min_cycle;Max_cycle;Signal;HPM_P1;HPM_P2
2021/06/23 00:02:25;;;;;;;35.45;10.43;;;;;;;;;;5088387;28;20032;-64
2021/06/23 00:04:51;;;;;;;31.15;9.90;;;;;;;;;;5090908;28;20482;-67
2021/06/23 00:07:17;;;;;;;39.42;10.00;;;;;;;;;;5085916;28;20035;-68
2021/06/23 00:09:44;;;;;;;35.22;10.00;;;;;;;;;;5089850;28;20630;-67
2021/06/23 00:12:15;;;;;;;33.33;10.32;;;;;;;;;;5074507;28;20397;-67
2021/06/23 00:14:42;;;;;;;30.83;9.57;;;;;;;;;;5091589;28;20020;-69
2021/06/23 00:17:08;;;;;;;32.70;9.63;;;;;;;;;;5085031;28;20107;-67
2021/06/23 00:19:34;;;;;;;31.20;9.65;;;;;;;;;;5080738;28;20114;-67
2021/06/23 00:22:00;;;;;;;40.40;10.20;;;;;;;;;;5076131;28;20035;-66
2021/06/23 00:24:26;;;;;;;29.70;9.48;;;;;;;;;;5090758;28;20031;-69
2021/06/23 00:26:52;;;;;;;31.48;9.35;;;;;;;;;;5091308;28;20038;-64
2021/06/23 00:29:18;;;;;;;27.70;9.18;;;;;;;;;;5088293;28;20016;-68
2021/06/23 00:31:44;;;;;;;25.10;9.02;;;;;;;;;;5066772;28;20073;-66
2021/06/23 00:34:11;;;;;;;29.00;10.00;;;;;;;;;;5063752;28;20021;-68
2021/06/23 00:36:38;;;;;;;36.28;9.85;;;;;;;;;;5078203;28;20060;-67
2021/06/23 00:39:04;;;;;;;30.67;9.15;;;;;;;;;;5087998;28;20470;-67
2021/06/23 00:41:30;;;;;;;29.60;9.38;;;;;;;;;;5085888;28;20044;-67
2021/06/23 00:43:56;;;;;;;28.33;9.40;;;;;;;;;;5087999;28;20531;-65
2021/06/23 00:46:23;;;;;;;31.48;10.20;;;;;;;;;;5085038;28;20024;-67
2021/06/23 00:48:54;;;;;;;30.92;9.20;;;;;;;;;;5086406;28;20670;-64
2021/06/23 00:51:20;;;;;;;26.73;9.40;;;;;;;;;;5086525;28;20095;-65
2021/06/23 00:53:47;;;;;;;26.58;8.57;;;;;;;;;;5081418;28;20028;-66
2021/06/23 00:56:15;;;;;;;35.53;9.50;;;;;;;;;;5087525;28;20067;-66
2021/06/23 00:58:41;;;;;;;31.70;9.43;;;;;;;;;;5086210;28;20036;-69
2021/06/23 01:01:08;;;;;;;36.45;9.98;;;;;;;;;;5082034;28;20185;-66
2021/06/23 01:03:35;;;;;;;34.17;9.02;;;;;;;;;;5087970;28;20077;-67
2021/06/23 01:06:01;;;;;;;34.28;10.30;;;;;;;;;;5085914;28;20031;-66
2021/06/23 01:08:27;;;;;;;35.35;9.68;;;;;;;;;;5087590;28;20518;-66
2021/06/23 01:10:53;;;;;;;34.97;10.10;;;;;;;;;;5082746;28;20036;-66
2021/06/23 01:13:29;;;;;;;33.92;10.43;;;;;;;;;;5087168;28;20052;-66
2021/06/23 01:15:58;;;;;;;35.17;10.13;;;;;;;;;;5092361;28;20420;-67
2021/06/23 01:18:25;;;;;;;33.80;10.07;;;;;;;;;;5089939;28;20470;-67
2021/06/23 01:20:51;;;;;;;33.65;10.07;;;;;;;;;;5083349;28;20054;-67
2021/06/23 01:23:18;;;;;;;35.80;10.23;;;;;;;;;;5086870;28;20021;-66
2021/06/23 01:25:45;;;;;;;34.47;10.45;;;;;;;;;;5091682;28;20395;-67
2021/06/23 01:28:11;;;;;;;36.75;11.27;;;;;;;;;;5090079;28;20486;-66
2021/06/23 01:30:37;;;;;;;33.83;10.10;;;;;;;;;;5085542;28;20105;-64
2021/06/23 01:33:05;;;;;;;33.58;9.93;;;;;;;;;;5085618;28;20058;-65
2021/06/23 01:35:31;;;;;;;35.15;10.55;;;;;;;;;;5084784;28;20043;-67
2021/06/23 01:38:01;;;;;;;44.90;10.48;;;;;;;;;;5088877;28;20031;-67
2021/06/23 01:40:27;;;;;;;33.38;9.63;;;;;;;;;;5085963;28;20040;-65
2021/06/23 01:42:53;;;;;;;40.92;9.82;;;;;;;;;;5087357;28;20492;-67
2021/06/23 01:45:19;;;;;;;45.38;10.02;;;;;;;;;;5086281;28;20028;-69
2021/06/23 01:47:46;;;;;;;39.38;10.00;;;;;;;;;;5086920;28;20476;-68
2021/06/23 01:50:12;;;;;;;30.42;9.85;;;;;;;;;;5088502;28;20035;-70
2021/06/23 01:52:39;;;;;;;31.73;9.43;;;;;;;;;;5081110;28;20481;-72
2021/06/23 01:55:05;;;;;;;32.00;9.35;;;;;;;;;;5085197;28;20032;-69
2021/06/23 01:57:33;;;;;;;28.70;8.95;;;;;;;;;;5081247;28;20020;-68
2021/06/23 01:59:59;;;;;;;33.42;9.18;;;;;;;;;;5091424;28;20173;-70
2021/06/23 02:02:29;;;;;;;36.17;8.82;;;;;;;;;;5084487;28;20028;-70
2021/06/23 02:05:07;;;;;;;28.35;8.82;;;;;;;;;;5087385;28;20032;-71
2021/06/23 02:07:47;;;;;;;34.10;9.55;;;;;;;;;;5089154;28;20032;-68
2021/06/23 02:10:13;;;;;;;38.58;9.10;;;;;;;;;;5082474;28;20019;-68
2021/06/23 02:12:44;;;;;;;35.85;9.57;;;;;;;;;;5089582;28;20035;-68
2021/06/23 02:15:10;;;;;;;35.63;9.45;;;;;;;;;;5086336;28;20032;-69
2021/06/23 02:17:39;;;;;;;28.65;8.13;;;;;;;;;;5080553;28;20481;-69
2021/06/23 02:20:06;;;;;;;35.67;8.63;;;;;;;;;;5087060;28;20128;-68
2021/06/23 02:22:33;;;;;;;37.95;9.80;;;;;;;;;;5085047;28;20055;-68
2021/06/23 02:25:12;;;;;;;30.33;8.68;;;;;;;;;;5086633;28;20020;-69
2021/06/23 02:27:42;;;;;;;36.40;9.05;;;;;;;;;;5086609;28;20188;-69
2021/06/23 02:30:09;;;;;;;31.95;8.10;;;;;;;;;;5089084;28;20486;-70
2021/06/23 02:32:36;;;;;;;33.53;9.10;;;;;;;;;;5080977;28;20031;-69
2021/06/23 02:35:04;;;;;;;39.50;9.18;;;;;;;;;;5087690;28;20024;-69
2021/06/23 02:37:30;;;;;;;29.25;9.10;;;;;;;;;;5086152;28;20028;-69
2021/06/23 02:39:57;;;;;;;38.03;9.35;;;;;;;;;;5085810;28;20132;-68
2021/06/23 02:42:24;;;;;;;31.63;9.77;;;;;;;;;;5086758;28;20060;-70
2021/06/23 02:44:50;;;;;;;31.75;10.43;;;;;;;;;;5084065;28;20031;-72
2021/06/23 02:47:19;;;;;;;35.75;8.60;;;;;;;;;;5086416;28;20089;-69
2021/06/23 02:49:45;;;;;;;32.03;9.43;;;;;;;;;;5088378;28;20016;-70
2021/06/23 02:52:13;;;;;;;30.08;9.23;;;;;;;;;;5082507;28;20409;-69
2021/06/23 02:54:40;;;;;;;31.08;9.15;;;;;;;;;;5082191;28;20029;-70
2021/06/23 02:57:06;;;;;;;34.80;9.65;;;;;;;;;;5088226;28;20031;-71
2021/06/23 02:59:33;;;;;;;35.25;9.40;;;;;;;;;;5085781;28;20862;-69
2021/06/23 03:01:59;;;;;;;31.98;9.27;;;;;;;;;;5082021;28;20547;-72
2021/06/23 03:04:25;;;;;;;30.98;9.25;;;;;;;;;;5087333;28;20386;-67
2021/06/23 03:06:51;;;;;;;33.80;9.57;;;;;;;;;;5085034;28;20542;-70
2021/06/23 03:09:17;;;;;;;35.20;8.93;;;;;;;;;;5086291;28;20562;-69
2021/06/23 03:11:43;;;;;;;40.00;10.18;;;;;;;;;;5083700;28;20032;-67
2021/06/23 03:14:09;;;;;;;36.70;9.77;;;;;;;;;;5082985;28;20505;-68
2021/06/23 03:16:36;;;;;;;36.97;10.20;;;;;;;;;;5081695;28;20116;-66
2021/06/23 03:19:02;;;;;;;42.40;9.32;;;;;;;;;;5084686;28;20032;-65
2021/06/23 03:21:29;;;;;;;41.30;9.82;;;;;;;;;;5084631;28;20038;-64
2021/06/23 03:23:56;;;;;;;37.33;10.18;;;;;;;;;;5089481;28;20502;-68
2021/06/23 03:26:24;;;;;;;43.03;11.35;;;;;;;;;;5093557;28;20117;-64
2021/06/23 03:28:50;;;;;;;37.67;9.32;;;;;;;;;;5089608;28;20046;-67
2021/06/23 03:31:16;;;;;;;34.92;10.27;;;;;;;;;;5088962;28;20105;-65
2021/06/23 03:33:42;;;;;;;39.72;10.27;;;;;;;;;;5084227;28;20486;-67
2021/06/23 03:36:08;;;;;;;37.08;10.00;;;;;;;;;;5086071;28;20056;-64
2021/06/23 03:38:35;;;;;;;30.02;9.38;;;;;;;;;;5081551;28;20027;-65
2021/06/23 03:41:01;;;;;;;33.55;10.13;;;;;;;;;;5090670;28;20100;-66
2021/06/23 03:43:27;;;;;;;37.00;10.27;;;;;;;;;;5087747;28;20028;-66
2021/06/23 03:45:53;;;;;;;27.60;8.98;;;;;;;;;;5086901;28;20025;-65
2021/06/23 03:48:19;;;;;;;40.17;9.45;;;;;;;;;;5087404;28;20020;-67
2021/06/23 03:50:47;;;;;;;33.72;9.60;;;;;;;;;;5087534;28;20043;-65
2021/06/23 03:53:14;;;;;;;29.02;9.50;;;;;;;;;;5080199;28;20107;-68
2021/06/23 03:55:40;;;;;;;42.08;9.55;;;;;;;;;;5088149;28;20481;-68
2021/06/23 03:58:07;;;;;;;32.33;9.57;;;;;;;;;;5078771;28;20059;-67
2021/06/23 04:00:33;;;;;;;42.42;9.90;;;;;;;;;;5089626;28;20109;-69
2021/06/23 04:02:59;;;;;;;30.30;9.05;;;;;;;;;;5087820;28;20021;-67
2021/06/23 04:05:25;;;;;;;37.80;9.35;;;;;;;;;;5081399;28;20032;-69
2021/06/23 04:07:51;;;;;;;36.92;9.35;;;;;;;;;;5084231;28;20125;-65
2021/06/23 04:10:17;;;;;;;30.50;8.95;;;;;;;;;;5077501;28;20052;-67
2021/06/23 04:12:44;;;;;;;35.80;8.73;;;;;;;;;;5092714;28;20028;-65
2021/06/23 04:15:11;;;;;;;37.80;9.05;;;;;;;;;;5068590;28;20035;-64
2021/06/23 04:17:39;;;;;;;43.65;10.45;;;;;;;;;;5088285;28;20032;-67
2021/06/23 04:20:07;;;;;;;28.27;8.43;;;;;;;;;;5086746;28;20048;-66
2021/06/23 04:22:33;;;;;;;33.70;8.88;;;;;;;;;;5087959;28;20433;-67
2021/06/23 04:24:59;;;;;;;45.33;9.93;;;;;;;;;;5089348;28;20059;-64
2021/06/23 04:27:25;;;;;;;34.70;9.52;;;;;;;;;;5090821;28;20032;-65
2021/06/23 04:29:51;;;;;;;42.80;8.90;;;;;;;;;;5086340;28;20032;-66
2021/06/23 04:32:18;;;;;;;35.55;9.57;;;;;;;;;;5086854;28;20028;-63
2021/06/23 04:34:44;;;;;;;41.50;9.15;;;;;;;;;;5064785;28;20123;-66
2021/06/23 04:37:10;;;;;;;45.45;10.50;;;;;;;;;;5067234;28;20470;-67
2021/06/23 04:39:36;;;;;;;41.95;9.52;;;;;;;;;;5088244;28;20028;-68
2021/06/23 04:42:02;;;;;;;32.13;9.20;;;;;;;;;;5090214;28;20036;-68
2021/06/23 04:44:28;;;;;;;35.63;9.10;;;;;;;;;;5085944;28;20069;-64
2021/06/23 04:46:54;;;;;;;37.80;9.40;;;;;;;;;;5086299;28;20031;-66
2021/06/23 04:49:23;;;;;;;35.53;9.45;;;;;;;;;;5077797;28;20033;-67
2021/06/23 04:51:49;;;;;;;32.58;10.05;;;;;;;;;;5078281;28;20116;-66
2021/06/23 04:54:15;;;;;;;36.00;10.07;;;;;;;;;;5084752;28;20032;-66
2021/06/23 04:56:41;;;;;;;34.75;9.27;;;;;;;;;;5066237;28;20461;-66
2021/06/23 04:59:07;;;;;;;31.00;9.85;;;;;;;;;;5090654;28;20443;-66
2021/06/23 05:01:33;;;;;;;33.28;8.73;;;;;;;;;;5090328;28;20032;-66
2021/06/23 05:03:59;;;;;;;30.95;8.35;;;;;;;;;;5090711;28;20031;-65
2021/06/23 05:06:25;;;;;;;41.90;9.82;;;;;;;;;;5085839;28;20034;-66
2021/06/23 05:08:53;;;;;;;37.67;9.00;;;;;;;;;;5089596;28;20478;-74
2021/06/23 05:11:19;;;;;;;38.17;8.52;;;;;;;;;;5070626;28;20024;-78
2021/06/23 05:13:45;;;;;;;28.17;7.30;;;;;;;;;;5071066;28;20612;-78
2021/06/23 05:16:11;;;;;;;25.50;7.38;;;;;;;;;;5087851;28;20063;-74
2021/06/23 05:18:37;;;;;;;28.45;7.57;;;;;;;;;;5070921;28;20024;-81
2021/06/23 05:21:04;;;;;;;32.22;8.68;;;;;;;;;;5083733;28;20039;-77
2021/06/23 05:23:30;;;;;;;35.03;7.88;;;;;;;;;;5069872;28;20027;-73
2021/06/23 05:25:56;;;;;;;25.80;7.47;;;;;;;;;;5087381;28;20493;-72
2021/06/23 05:28:23;;;;;;;28.98;7.93;;;;;;;;;;5067754;28;20397;-72
2021/06/23 05:30:49;;;;;;;32.83;7.47;;;;;;;;;;5085724;28;20029;-73
2021/06/23 05:33:15;;;;;;;28.45;7.82;;;;;;;;;;5088058;28;20174;-65
2021/06/23 05:35:41;;;;;;;31.35;7.85;;;;;;;;;;5083256;28;20028;-64
2021/06/23 05:38:07;;;;;;;30.45;7.60;;;;;;;;;;5090065;28;20249;-64
2021/06/23 05:40:33;;;;;;;29.27;7.68;;;;;;;;;;5087114;28;20044;-66
2021/06/23 05:42:59;;;;;;;40.15;8.18;;;;;;;;;;5080755;28;20020;-64
2021/06/23 05:45:25;;;;;;;27.17;7.70;;;;;;;;;;5083634;28;20510;-66
2021/06/23 05:47:51;;;;;;;38.53;7.88;;;;;;;;;;5084561;28;20035;-66
2021/06/23 05:50:17;;;;;;;35.38;7.05;;;;;;;;;;5090582;28;20027;-66
2021/06/23 05:52:43;;;;;;;30.20;7.40;;;;;;;;;;5082791;28;20057;-64
2021/06/23 05:55:10;;;;;;;37.60;7.80;;;;;;;;;;5083220;28;20024;-70
2021/06/23 05:57:36;;;;;;;27.48;6.75;;;;;;;;;;5089890;28;20023;-71
2021/06/23 06:00:03;;;;;;;27.10;6.82;;;;;;;;;;5089075;28;20039;-71
2021/06/23 06:02:29;;;;;;;25.52;6.90;;;;;;;;;;5084569;28;20032;-69
2021/06/23 06:04:55;;;;;;;29.10;7.70;;;;;;;;;;5089321;28;20030;-76
2021/06/23 06:07:21;;;;;;;25.88;7.50;;;;;;;;;;5087126;28;20031;-74
2021/06/23 06:09:50;;;;;;;31.08;7.53;;;;;;;;;;5084998;28;20122;-68
2021/06/23 06:12:16;;;;;;;30.27;7.30;;;;;;;;;;5086789;28;20024;-73
2021/06/23 06:14:44;;;;;;;36.50;7.80;;;;;;;;;;5089901;28;20123;-66
2021/06/23 06:17:10;;;;;;;24.65;7.90;;;;;;;;;;5090923;28;20055;-69
2021/06/23 06:19:36;;;;;;;29.60;7.30;;;;;;;;;;5093003;28;20057;-67
2021/06/23 06:22:02;;;;;;;26.65;6.88;;;;;;;;;;5084252;28;20127;-65
2021/06/23 06:24:28;;;;;;;30.58;7.13;;;;;;;;;;5079576;28;20059;-65
2021/06/23 06:26:58;;;;;;;44.17;8.00;;;;;;;;;;5088389;28;20497;-69
2021/06/23 06:29:24;;;;;;;33.75;7.03;;;;;;;;;;5079256;28;20088;-70
2021/06/23 06:31:50;;;;;;;31.77;6.50;;;;;;;;;;5086826;28;20036;-69
2021/06/23 06:34:16;;;;;;;29.95;6.85;;;;;;;;;;5081380;28;20031;-69
2021/06/23 06:36:43;;;;;;;24.73;6.65;;;;;;;;;;5075795;28;20501;-66
2021/06/23 06:39:09;;;;;;;32.47;7.55;;;;;;;;;;5090565;28;20016;-66
2021/06/23 06:41:35;;;;;;;28.73;7.13;;;;;;;;;;5088951;28;20561;-65
2021/06/23 06:44:01;;;;;;;33.60;7.30;;;;;;;;;;5085476;28;20027;-64
2021/06/23 06:46:28;;;;;;;28.98;6.63;;;;;;;;;;5066884;28;20508;-67
2021/06/23 06:48:54;;;;;;;27.65;7.10;;;;;;;;;;5092036;28;20074;-67
2021/06/23 06:51:20;;;;;;;36.97;7.03;;;;;;;;;;5092022;28;20054;-68
2021/06/23 06:53:46;;;;;;;23.55;5.95;;;;;;;;;;5092486;28;20148;-65
2021/06/23 06:56:12;;;;;;;32.85;7.18;;;;;;;;;;5091094;28;20051;-69
2021/06/23 06:58:41;;;;;;;32.28;7.13;;;;;;;;;;5090464;28;20116;-70
2021/06/23 07:01:07;;;;;;;35.78;6.78;;;;;;;;;;5089648;28;20032;-68
2021/06/23 07:03:33;;;;;;;39.03;7.63;;;;;;;;;;5092896;28;20484;-67
2021/06/23 07:06:00;;;;;;;32.60;7.38;;;;;;;;;;5090108;28;20438;-69
2021/06/23 07:08:28;;;;;;;26.70;6.13;;;;;;;;;;5072944;28;20020;-68
2021/06/23 07:10:54;;;;;;;33.25;7.25;;;;;;;;;;5094759;28;20124;-66
2021/06/23 07:13:20;;;;;;;34.83;7.10;;;;;;;;;;5096833;28;20032;-69
2021/06/23 07:15:46;;;;;;;27.58;7.30;;;;;;;;;;5093677;28;20031;-70
2021/06/23 07:18:13;;;;;;;29.90;7.70;;;;;;;;;;5091300;28;20376;-71
2021/06/23 07:20:39;;;;;;;57.17;7.85;;;;;;;;;;5090708;28;20102;-70
2021/06/23 07:23:05;;;;;;;28.27;6.75;;;;;;;;;;5076438;28;20462;-71
2021/06/23 07:25:31;;;;;;;29.20;6.55;;;;;;;;;;5090033;28;20381;-78
2021/06/23 07:27:58;;;;;;;25.92;6.88;;;;;;;;;;5092186;28;21561;-75
2021/06/23 07:30:28;;;;;;;20.85;6.07;;;;;;;;;;5090459;28;20469;-71
2021/06/23 07:32:58;;;;;;;21.75;6.28;;;;;;;;;;5086750;28;20415;-69
2021/06/23 07:38:14;;;;;;;19.00;5.50;;;;;;;;;;5084665;28;20079;-63
2021/06/23 07:43:06;;;;;;;18.75;5.50;;;;;;;;;;5090065;28;20024;-63
2021/06/23 07:45:32;;;;;;;19.00;5.40;;;;;;;;;;5080560;28;20028;-69
2021/06/23 07:47:58;;;;;;;20.02;5.40;;;;;;;;;;5086816;28;20514;-79
2021/06/23 07:50:24;;;;;;;15.50;4.32;;;;;;;;;;5088993;28;20027;-76
2021/06/23 07:52:58;;;;;;;18.50;5.68;;;;;;;;;;5089610;28;20032;-74
2021/06/23 08:14:40;;;;;;;16.90;5.25;;;;;;;;;;5012370;28;20018;-77
2021/06/23 08:17:06;;;;;;;16.80;5.07;;;;;;;;;;5011112;28;20038;-83
2021/06/23 08:19:32;;;;;;;15.57;5.25;;;;;;;;;;5012086;28;20148;-77
2021/06/23 08:21:59;;;;;;;18.95;4.97;;;;;;;;;;5011245;28;20852;-82
2021/06/23 08:24:25;;;;;;;24.02;5.95;;;;;;;;;;5004757;28;20444;-72
2021/06/23 08:26:51;;;;;;;13.98;4.90;;;;;;;;;;5003461;28;20193;-74
2021/06/23 08:29:17;;;;;;;19.33;6.13;;;;;;;;;;5005401;28;20079;-76
2021/06/23 08:31:43;;;;;;;25.20;5.22;;;;;;;;;;5007146;28;20518;-73
2021/06/23 08:34:09;;;;;;;21.58;5.60;;;;;;;;;;5007435;28;20053;-77
2021/06/23 08:36:35;;;;;;;25.60;6.18;;;;;;;;;;5008641;28;20112;-78
2021/06/23 08:39:01;;;;;;;20.45;5.38;;;;;;;;;;5007904;28;20649;-80
2021/06/23 08:41:29;;;;;;;15.07;4.82;;;;;;;;;;5026969;28;20054;-75
2021/06/23 08:43:58;;;;;;;18.33;4.78;;;;;;;;;;5029839;28;20022;-77
2021/06/23 08:46:29;;;;;;;18.88;5.07;;;;;;;;;;5032143;28;20088;-86
2021/06/23 08:48:55;;;;;;;15.63;5.20;;;;;;;;;;5053590;28;20508;-82
2021/06/23 08:51:22;;;;;;;17.23;4.90;;;;;;;;;;5066781;28;20024;-74
2021/06/23 08:53:48;;;;;;;22.92;5.07;;;;;;;;;;5091606;28;20020;-76
2021/06/23 08:56:15;;;;;;;17.92;5.28;;;;;;;;;;5087650;28;20020;-70
2021/06/23 08:58:42;;;;;;;15.30;4.72;;;;;;;;;;5090214;28;20378;-71
2021/06/23 09:01:08;;;;;;;16.88;4.88;;;;;;;;;;5070547;28;20048;-75
2021/06/23 09:04:03;;;;;;;17.25;4.97;;;;;;;;;;5073833;28;20035;-76
2021/06/23 09:06:48;;;;;;;16.48;4.20;;;;;;;;;;5004194;28;20562;-83
2021/06/23 09:09:24;;;;;;;16.58;4.47;;;;;;;;;;4996299;28;20042;-80
2021/06/23 09:11:54;;;;;;;16.15;4.20;;;;;;;;;;5002935;28;20029;-75
2021/06/23 09:14:23;;;;;;;13.90;3.65;;;;;;;;;;4993396;28;20148;-73
2021/06/23 09:17:06;;;;;;;12.90;4.53;;;;;;;;;;5003995;28;20034;-67
2021/06/23 09:19:33;;;;;;;15.68;4.13;;;;;;;;;;5002059;28;20578;-70
2021/06/23 09:21:59;;;;;;;16.50;4.03;;;;;;;;;;5000015;28;20161;-65
2021/06/23 09:24:38;;;;;;;12.27;3.95;;;;;;;;;;5003260;28;20042;-69
2021/06/23 09:27:17;;;;;;;12.57;3.95;;;;;;;;;;5004536;28;20129;-67
2021/06/23 09:29:43;;;;;;;15.02;3.72;;;;;;;;;;5008307;28;20038;-69
2021/06/23 09:32:10;;;;;;;12.48;3.50;;;;;;;;;;4999031;28;20411;-68
2021/06/23 09:34:42;;;;;;;10.82;3.50;;;;;;;;;;4997653;28;20030;-74
2021/06/23 09:37:30;;;;;;;15.70;3.95;;;;;;;;;;4991918;28;20040;-72
2021/06/23 09:40:22;;;;;;;10.85;3.63;;;;;;;;;;5002643;28;20057;-77
2021/06/23 09:43:11;;;;;;;11.95;3.38;;;;;;;;;;5023447;28;20444;-65
2021/06/23 09:45:37;;;;;;;15.90;3.70;;;;;;;;;;5089853;28;20115;-67
2021/06/23 09:48:05;;;;;;;10.27;3.50;;;;;;;;;;5090529;28;20548;-66
2021/06/23 09:50:32;;;;;;;18.75;4.20;;;;;;;;;;5091416;28;20020;-70
2021/06/23 09:53:04;;;;;;;16.90;3.75;;;;;;;;;;5088519;28;20465;-67
2021/06/23 09:55:36;;;;;;;14.00;3.70;;;;;;;;;;5078469;28;20034;-66
2021/06/23 09:58:11;;;;;;;22.15;4.20;;;;;;;;;;5087487;28;20023;-83
2021/06/23 10:00:57;;;;;;;14.60;3.95;;;;;;;;;;5089899;28;20499;-78
2021/06/23 10:03:23;;;;;;;16.30;4.40;;;;;;;;;;5081534;28;20107;-77
2021/06/23 10:05:49;;;;;;;19.10;4.72;;;;;;;;;;5085976;28;20024;-77
2021/06/23 10:08:22;;;;;;;15.80;3.90;;;;;;;;;;5085074;28;20029;-83
2021/06/23 10:10:48;;;;;;;11.50;3.88;;;;;;;;;;5068023;28;20028;-74
2021/06/23 10:13:16;;;;;;;16.15;4.38;;;;;;;;;;5087969;28;20074;-77
2021/06/23 10:15:42;;;;;;;14.88;4.07;;;;;;;;;;5090187;28;20476;-76
2021/06/23 10:18:08;;;;;;;14.90;4.05;;;;;;;;;;5084926;28;20128;-66
2021/06/23 10:20:34;;;;;;;14.73;4.25;;;;;;;;;;5091887;28;20040;-67
2021/06/23 10:23:06;;;;;;;16.88;4.88;;;;;;;;;;5087420;28;20028;-67
2021/06/23 10:25:33;;;;;;;14.13;4.20;;;;;;;;;;5067842;28;20023;-76
2021/06/23 10:28:00;;;;;;;14.73;3.95;;;;;;;;;;5085394;28;20442;-71
2021/06/23 10:30:30;;;;;;;15.68;4.85;;;;;;;;;;5085231;28;20052;-77
2021/06/23 10:32:57;;;;;;;14.27;4.22;;;;;;;;;;5078506;28;20028;-79
2021/06/23 10:35:23;;;;;;;18.20;5.00;;;;;;;;;;5081897;28;20545;-65
2021/06/23 10:37:50;;;;;;;12.02;4.80;;;;;;;;;;5088423;28;20089;-64
2021/06/23 10:40:17;;;;;;;18.33;4.22;;;;;;;;;;5084016;28;20056;-78
2021/06/23 10:42:43;;;;;;;13.07;4.68;;;;;;;;;;5069207;28;20070;-70
2021/06/23 10:45:10;;;;;;;14.88;5.00;;;;;;;;;;5081027;28;20020;-69
2021/06/23 10:47:39;;;;;;;21.10;4.68;;;;;;;;;;5082042;28;20032;-71
2021/06/23 10:50:06;;;;;;;12.43;3.70;;;;;;;;;;5085671;28;20107;-70
2021/06/23 10:52:33;;;;;;;13.68;4.00;;;;;;;;;;5075056;28;20027;-69
2021/06/23 10:55:04;;;;;;;16.73;4.38;;;;;;;;;;5083625;28;20493;-67
2021/06/23 10:57:41;;;;;;;12.65;3.78;;;;;;;;;;5067490;28;20122;-81
2021/06/23 11:00:24;;;;;;;11.27;4.07;;;;;;;;;;5059816;28;20350;-79
2021/06/23 11:02:52;;;;;;;15.00;3.90;;;;;;;;;;5088926;28;20051;-77
2021/06/23 11:05:21;;;;;;;16.48;4.55;;;;;;;;;;5084461;28;20023;-72
2021/06/23 11:07:51;;;;;;;19.73;4.57;;;;;;;;;;5081805;28;20039;-72
2021/06/23 11:10:19;;;;;;;13.18;3.75;;;;;;;;;;5087998;28;20020;-70
2021/06/23 11:12:48;;;;;;;14.45;3.90;;;;;;;;;;5085969;28;20025;-71
2021/06/23 11:15:15;;;;;;;17.13;4.10;;;;;;;;;;5081680;28;20134;-72
2021/06/23 11:17:42;;;;;;;17.05;4.05;;;;;;;;;;5083556;28;20031;-73
2021/06/23 11:20:20;;;;;;;21.55;4.50;;;;;;;;;;5084161;28;20036;-71
2021/06/23 11:22:47;;;;;;;14.40;4.05;;;;;;;;;;5081959;28;20039;-80
2021/06/23 11:25:26;;;;;;;11.18;3.78;;;;;;;;;;5063268;28;20032;-68
2021/06/23 11:28:12;;;;;;;15.55;4.32;;;;;;;;;;5083928;28;20020;-75
2021/06/23 11:30:50;;;;;;;16.05;4.50;;;;;;;;;;5078494;28;20155;-73
2021/06/23 11:33:28;;;;;;;22.73;4.75;;;;;;;;;;5086327;28;20106;-75
2021/06/23 11:35:54;;;;;;;12.32;4.18;;;;;;;;;;5081117;28;20040;-68
2021/06/23 11:38:21;;;;;;;14.95;4.55;;;;;;;;;;5080851;28;20028;-74
2021/06/23 11:40:47;;;;;;;19.33;4.88;;;;;;;;;;5088615;28;20059;-74
2021/06/23 11:43:13;;;;;;;21.52;4.65;;;;;;;;;;5089526;28;20027;-76
2021/06/23 11:45:39;;;;;;;18.02;4.65;;;;;;;;;;5084301;28;20481;-74
2021/06/23 11:48:05;;;;;;;17.52;4.90;;;;;;;;;;5087520;28;20032;-75
2021/06/23 11:50:32;;;;;;;16.48;4.45;;;;;;;;;;5087865;28;20020;-78
2021/06/23 11:52:58;;;;;;;17.15;4.90;;;;;;;;;;5070145;28;20188;-76
2021/06/23 11:55:24;;;;;;;14.95;5.32;;;;;;;;;;5091328;28;20027;-79
2021/06/23 11:57:54;;;;;;;25.30;5.88;;;;;;;;;;5092525;28;20028;-73
2021/06/23 12:00:21;;;;;;;20.15;6.75;;;;;;;;;;5090293;28;20024;-75
2021/06/23 12:02:47;;;;;;;14.70;4.60;;;;;;;;;;5087543;28;20028;-79
2021/06/23 12:05:14;;;;;;;14.23;4.05;;;;;;;;;;5089695;28;20023;-77
2021/06/23 12:07:42;;;;;;;20.50;5.18;;;;;;;;;;5086314;28;20031;-85
2021/06/23 12:10:09;;;;;;;18.42;5.15;;;;;;;;;;5065891;28;20481;-79
2021/06/23 12:12:36;;;;;;;16.13;5.13;;;;;;;;;;5089973;28;20549;-75
2021/06/23 12:15:04;;;;;;;19.17;5.18;;;;;;;;;;5069758;28;20033;-80
2021/06/23 12:17:30;;;;;;;18.00;5.20;;;;;;;;;;5090263;28;20024;-80
2021/06/23 12:19:56;;;;;;;20.73;4.38;;;;;;;;;;5071326;28;20106;-84
2021/06/23 12:22:25;;;;;;;17.55;5.05;;;;;;;;;;5085659;28;20135;-81
2021/06/23 12:24:52;;;;;;;22.10;5.07;;;;;;;;;;5068220;28;20035;-81
2021/06/23 12:27:18;;;;;;;17.67;4.55;;;;;;;;;;5082925;28;20019;-85
2021/06/23 12:29:44;;;;;;;15.88;4.53;;;;;;;;;;5083745;28;20436;-81
2021/06/23 12:32:10;;;;;;;22.88;4.97;;;;;;;;;;5088756;28;20052;-72
2021/06/23 12:34:36;;;;;;;24.92;5.05;;;;;;;;;;5082622;28;20091;-72
2021/06/23 12:37:03;;;;;;;19.83;4.70;;;;;;;;;;5089701;28;20023;-68
2021/06/23 12:39:29;;;;;;;15.15;4.47;;;;;;;;;;5089591;28;20016;-73
2021/06/23 12:41:56;;;;;;;15.38;4.05;;;;;;;;;;5068583;28;20100;-72
2021/06/23 12:44:22;;;;;;;19.27;5.00;;;;;;;;;;5070843;28;20028;-68
2021/06/23 12:46:49;;;;;;;17.25;4.57;;;;;;;;;;5090808;28;20024;-67
2021/06/23 12:49:15;;;;;;;16.90;4.90;;;;;;;;;;5086774;28;20093;-71
2021/06/23 12:51:41;;;;;;;16.38;4.80;;;;;;;;;;5090992;28;20028;-72
2021/06/23 12:54:07;;;;;;;20.30;4.50;;;;;;;;;;5086318;28;20032;-69
2021/06/23 12:56:34;;;;;;;22.67;5.10;;;;;;;;;;5069522;28;20031;-66
2021/06/23 12:59:00;;;;;;;18.55;5.32;;;;;;;;;;5082759;28;20398;-70
2021/06/23 13:01:26;;;;;;;21.17;4.78;;;;;;;;;;5084783;28;20028;-72
2021/06/23 13:03:53;;;;;;;15.43;5.15;;;;;;;;;;5083597;28;20089;-73
2021/06/23 13:06:19;;;;;;;16.02;4.97;;;;;;;;;;5072457;28;20032;-70
2021/06/23 13:08:47;;;;;;;21.70;6.18;;;;;;;;;;5071545;28;20016;-72
2021/06/23 13:11:14;;;;;;;19.70;5.18;;;;;;;;;;5085234;28;20085;-67
2021/06/23 13:13:40;;;;;;;13.25;4.50;;;;;;;;;;5085497;28;20012;-68
2021/06/23 13:16:10;;;;;;;16.60;5.10;;;;;;;;;;5092848;28;20523;-73
2021/06/23 13:18:37;;;;;;;18.73;5.90;;;;;;;;;;5092411;28;20020;-71
2021/06/23 13:21:04;;;;;;;28.92;6.00;;;;;;;;;;5067736;28;20132;-69
2021/06/23 13:23:30;;;;;;;23.38;5.80;;;;;;;;;;5086103;28;20032;-74
2021/06/23 13:25:56;;;;;;;20.38;5.47;;;;;;;;;;5087554;28;20484;-68
2021/06/23 13:28:23;;;;;;;21.30;5.40;;;;;;;;;;5084222;28;20024;-85
2021/06/23 13:30:49;;;;;;;15.70;4.93;;;;;;;;;;5082877;28;20024;-73
2021/06/23 13:33:15;;;;;;;15.48;4.53;;;;;;;;;;5086865;28;20027;-65
2021/06/23 13:35:41;;;;;;;18.67;5.10;;;;;;;;;;5082962;28;20025;-69
2021/06/23 13:38:09;;;;;;;22.05;4.93;;;;;;;;;;5084710;28;20081;-70
2021/06/23 13:40:35;;;;;;;15.13;4.45;;;;;;;;;;5085455;28;20028;-72
2021/06/23 13:43:02;;;;;;;19.75;5.20;;;;;;;;;;5082505;28;20547;-71
2021/06/23 13:45:28;;;;;;;22.35;4.53;;;;;;;;;;5087454;28;20036;-73
2021/06/23 13:47:54;;;;;;;16.25;4.82;;;;;;;;;;5083440;28;20082;-78
2021/06/23 13:50:20;;;;;;;19.40;6.63;;;;;;;;;;5082938;28;20082;-90
2021/06/23 13:52:47;;;;;;;22.73;6.82;;;;;;;;;;5068656;28;20024;-75
2021/06/23 13:55:14;;;;;;;18.65;6.03;;;;;;;;;;5083456;28;20052;-70
2021/06/23 13:57:41;;;;;;;19.40;5.88;;;;;;;;;;5069293;28;20056;-70
2021/06/23 14:00:11;;;;;;;19.17;6.07;;;;;;;;;;5085426;28;20168;-71
2021/06/23 14:02:38;;;;;;;19.63;4.70;;;;;;;;;;5083460;28;20131;-71
2021/06/23 14:05:04;;;;;;;22.73;5.15;;;;;;;;;;5080429;28;20051;-70
2021/06/23 14:07:30;;;;;;;18.92;4.93;;;;;;;;;;5087915;28;20027;-71
2021/06/23 14:09:59;;;;;;;16.92;5.60;;;;;;;;;;5088150;28;20024;-84
2021/06/23 14:12:25;;;;;;;38.40;5.10;;;;;;;;;;5087077;28;20024;-73
2021/06/23 14:14:51;;;;;;;20.35;4.95;;;;;;;;;;5088145;28;20028;-74
2021/06/23 14:17:17;;;;;;;18.52;4.55;;;;;;;;;;5088124;28;20038;-73
2021/06/23 14:19:43;;;;;;;14.57;4.55;;;;;;;;;;5078290;28;20152;-72
2021/06/23 14:22:10;;;;;;;13.52;4.47;;;;;;;;;;5090035;28;20036;-71
2021/06/23 14:24:38;;;;;;;11.98;4.07;;;;;;;;;;5085549;28;20401;-73
2021/06/23 14:27:04;;;;;;;12.18;4.30;;;;;;;;;;5066258;28;20047;-72
2021/06/23 14:29:30;;;;;;;20.20;4.60;;;;;;;;;;5084155;28;20032;-75
2021/06/23 14:31:58;;;;;;;15.13;4.30;;;;;;;;;;5079649;28;20418;-70
2021/06/23 14:34:25;;;;;;;16.13;4.38;;;;;;;;;;5050395;28;20033;-71
2021/06/23 14:36:51;;;;;;;15.73;4.05;;;;;;;;;;5068363;28;20067;-72
2021/06/23 14:39:17;;;;;;;16.42;3.97;;;;;;;;;;5065183;28;20690;-71
2021/06/23 14:41:44;;;;;;;16.95;4.38;;;;;;;;;;5063512;28;20488;-75
2021/06/23 14:44:12;;;;;;;15.63;4.57;;;;;;;;;;5052991;28;20025;-72
2021/06/23 14:46:38;;;;;;;19.23;4.68;;;;;;;;;;5037583;28;20063;-72
2021/06/23 14:49:05;;;;;;;21.83;4.68;;;;;;;;;;5062609;28;20033;-74
2021/06/23 14:51:32;;;;;;;16.55;4.97;;;;;;;;;;5070853;28;20587;-70
2021/06/23 14:53:58;;;;;;;21.95;5.47;;;;;;;;;;5061780;28;20085;-70
2021/06/23 14:56:24;;;;;;;23.25;6.15;;;;;;;;;;5077075;28;20024;-74